Řízení letového provozu České republiky  
Aktualizace dat:  29.05.2015 01:38:07 UTC English version
   METEO Zobrazení stránky:  29.05.2015 01:53:17 UTC  
vysvětlivky
METAR EDDB 290120Z 24004KT CAVOK 10/09 Q1013 NOSIG=
METAR EDDC 290120Z 22003KT 9999 SCT033 BKN100 11/10 Q1014=
METAR EDDE 290120Z 19005KT CAVOK 09/07 Q1014=
METAR EDDF 290120Z 20003KT CAVOK 11/08 Q1014 NOSIG=
METAR EDDM 290120Z 26004KT CAVOK 10/06 Q1015 NOSIG=
METAR EDDN 290120Z VRB01KT CAVOK 12/08 Q1014=
METAR EDDP 290120Z 22006KT CAVOK 10/08 Q1014 NOSIG=
METAR EDDT 290120Z 25003KT 9999 FEW010 BKN080 11/09 Q1013=
METAR EDQM NIL
METAR EPBY 290130Z 18003KT CAVOK 11/07 Q1011 =
METAR EPGD 290130Z 28005KT 9999 FEW013 10/09 Q1010 =
METAR EPKK 290130Z 00000KT 8000 NSC 04/03 Q1015 =
METAR EPKT 290130Z 14005KT 130V190 CAVOK 06/04 Q1015 =
METAR EPLL 290130Z 16002KT CAVOK 07/03 Q1013 =
METAR EPPO 290130Z 26005KT 9999 -SHRA SCT050CB 12/10 Q1012 =
METAR EPRZ 290130Z 23004KT CAVOK 04/04 Q1016 =
METAR EPWA 290130Z 16002KT 9999 MIFG NSC 04/04 Q1013 TEMPO 5000 BR=
METAR EPWR 290130Z 34003KT 310V040 CAVOK 10/07 Q1014 =
METAR LHBP 290130Z 00000KT CAVOK 05/04 Q1016 NOSIG=
METAR LHSM NIL
METAR LKCV 290100Z 14004KT CAVOK 11/07 Q1014 NOSIG=
METAR LKKB 290100Z 22004KT CAVOK 12/07 Q1013=
METAR LKKU NIL
METAR LKKV 290100Z 28004KT CAVOK 10/08 Q1014 RMK REG QNH 1011=
METAR LKLN 290100Z AUTO VRB03KT CAVOK 10/07 Q1014=
METAR LKMT 290130Z 20003KT CAVOK 06/04 Q1015 NOSIG RMK REG QNH 1011=
METAR LKNA 290100Z 12002KT CAVOK 08/05 Q1015=
METAR LKPD 290100Z VRB02KT CAVOK 11/06 Q1014=
METAR LKPR 290130Z 23005KT CAVOK 11/07 Q1013 NOSIG RMK REG QNH 1011=
METAR LKTB 290130Z 03005KT CAVOK 07/04 Q1015 NOSIG RMK REG QNH 1011=
METAR LKVO NIL
METAR LOWI 290120Z AUTO VRB02KT 9999 NCD 07/05 Q1017=
METAR LOWL 290120Z AUTO VRB01KT 9999 FEW070 09/08 Q1015=
METAR LOWS 290120Z AUTO 16008KT 130V190 9999 FEW080 10/06 Q1016=
METAR LOWW 290120Z 15003KT CAVOK 08/06 Q1015 NOSIG=
METAR LZIB 290130Z 04005KT CAVOK 06/05 Q1016=
METAR LZKZ 290130Z 02002KT CAVOK 07/05 Q1016=
METAR LZPP 290130Z AUTO 05004KT 8000 NCD 05/04 Q1016=
METAR LZSL 290130Z 00000KT CAVOK 04/03 Q1016=
METAR LZTT 290130Z 29004KT CAVOK 02/01 Q1016=
METAR LZZI 290130Z 14001KT 9999 FEW009 03/02 Q1017=